Time;durP1;ratioP1;P1;durP2;ratioP2;P2;SDS_P1;SDS_P2;PMS_P1;PMS_P2;Temp;Humidity;BMP_temperature;BMP_pressure;BME280_temperature;BME280_humidity;BME280_pressure;Samples;Min_cycle;Max_cycle;Signal;HPM_P1;HPM_P2
2023/08/18 00:00:45;;;;;;;2.47;1.87;;;24.90;84.20;;;;;;1964038;73;21078;-89
2023/08/18 00:03:37;;;;;;;4.85;2.10;;;24.90;84.30;;;;;;1963859;73;21119;-90
2023/08/18 00:06:29;;;;;;;2.80;1.85;;;24.90;84.60;;;;;;1964195;73;21175;-89
2023/08/18 00:09:20;;;;;;;2.60;1.90;;;24.80;85.30;;;;;;1964306;73;21094;-89
2023/08/18 00:12:12;;;;;;;4.92;2.00;;;24.70;85.90;;;;;;1964214;73;21046;-89
2023/08/18 00:15:05;;;;;;;2.98;1.90;;;24.60;86.70;;;;;;1964515;73;21093;-89
2023/08/18 00:17:56;;;;;;;2.65;1.90;;;24.50;88.50;;;;;;1962045;73;21216;-89
2023/08/18 00:20:48;;;;;;;3.33;2.25;;;24.50;88.60;;;;;;1957801;73;21116;-89
2023/08/18 00:23:40;;;;;;;4.47;2.15;;;24.60;89.20;;;;;;1957351;73;21090;-89
2023/08/18 00:26:31;;;;;;;2.80;2.17;;;24.60;89.00;;;;;;1957314;73;21082;-89
2023/08/18 00:29:23;;;;;;;4.28;2.62;;;24.70;89.20;;;;;;1957275;73;21183;-89
2023/08/18 00:32:15;;;;;;;6.53;2.00;;;24.70;89.30;;;;;;1957182;73;21094;-88
2023/08/18 00:35:07;;;;;;;2.35;2.08;;;24.80;89.90;;;;;;1931946;73;21133;-89
2023/08/18 00:37:59;;;;;;;5.30;1.90;;;24.80;90.40;;;;;;1898821;75;21085;-89
2023/08/18 00:40:54;;;;;;;3.37;2.20;;;24.60;91.30;;;;;;1899034;75;21143;-89
2023/08/18 00:43:45;;;;;;;2.30;1.87;;;24.40;91.20;;;;;;1899030;75;21159;-88
2023/08/18 00:46:38;;;;;;;2.47;1.77;;;24.40;91.90;;;;;;1899223;75;21096;-89
2023/08/18 00:49:29;;;;;;;2.58;2.17;;;24.20;91.90;;;;;;1898902;75;21163;-89
2023/08/18 00:52:21;;;;;;;6.87;2.50;;;24.10;92.50;;;;;;1899174;75;21182;-88
2023/08/18 00:55:13;;;;;;;5.00;2.58;;;24.00;93.60;;;;;;1898703;75;21109;-89
2023/08/18 00:58:06;;;;;;;3.55;2.17;;;23.90;94.10;;;;;;1898892;75;21106;-89
2023/08/18 01:00:57;;;;;;;2.40;2.15;;;23.80;94.60;;;;;;1898743;75;21089;-88
2023/08/18 01:03:50;;;;;;;2.52;1.98;;;23.90;94.60;;;;;;1899037;75;21646;-89
2023/08/18 01:06:42;;;;;;;3.00;2.10;;;24.00;94.80;;;;;;1899121;75;21131;-88
2023/08/18 01:09:33;;;;;;;6.00;2.52;;;24.10;95.10;;;;;;1898897;75;21686;-89
2023/08/18 01:12:29;;;;;;;3.10;2.35;;;24.20;95.30;;;;;;1899609;75;21089;-89
2023/08/18 01:15:25;;;;;;;3.77;2.00;;;24.30;95.80;;;;;;1899435;75;21549;-90
2023/08/18 01:18:17;;;;;;;5.65;2.30;;;24.20;96.10;;;;;;1899817;75;21537;-89
2023/08/18 01:21:11;;;;;;;2.45;1.82;;;24.10;96.60;;;;;;1908226;75;21517;-89
2023/08/18 01:24:05;;;;;;;3.12;2.20;;;24.00;96.60;;;;;;1908604;75;21148;-89
2023/08/18 01:26:56;;;;;;;3.45;2.00;;;24.00;96.80;;;;;;1908698;75;21104;-89
2023/08/18 01:29:48;;;;;;;3.05;2.00;;;23.90;97.10;;;;;;1908383;75;21061;-89
2023/08/18 01:32:43;;;;;;;5.00;1.90;;;23.90;97.30;;;;;;1908706;75;21113;-89
2023/08/18 01:35:36;;;;;;;3.00;2.02;;;23.90;97.50;;;;;;1908453;75;21544;-89
2023/08/18 01:38:29;;;;;;;2.30;2.10;;;23.80;98.30;;;;;;1908681;75;21186;-89
2023/08/18 01:41:23;;;;;;;3.08;2.00;;;23.50;98.70;;;;;;1909382;75;21191;-89
2023/08/18 01:44:18;;;;;;;3.00;2.35;;;23.50;99.00;;;;;;1908552;75;21569;-89
2023/08/18 01:47:10;;;;;;;3.40;2.25;;;23.50;99.60;;;;;;1908249;75;21101;-89
2023/08/18 01:50:02;;;;;;;3.27;2.00;;;23.30;99.90;;;;;;1908318;75;21101;-90
2023/08/18 01:52:53;;;;;;;2.77;1.82;;;23.40;99.90;;;;;;1908433;75;21126;-89
2023/08/18 01:55:45;;;;;;;3.25;1.82;;;23.50;99.90;;;;;;1908442;75;21180;-89
2023/08/18 01:58:36;;;;;;;2.58;2.20;;;23.60;99.90;;;;;;1908431;75;21171;-90
2023/08/18 02:01:28;;;;;;;2.35;1.90;;;23.60;99.90;;;;;;1908109;75;21133;-89
2023/08/18 02:04:19;;;;;;;4.25;2.12;;;23.70;99.90;;;;;;1908438;75;21100;-89
2023/08/18 02:07:11;;;;;;;3.35;2.20;;;23.70;99.90;;;;;;1896618;75;21172;-89
2023/08/18 02:10:04;;;;;;;4.60;2.25;;;23.80;99.90;;;;;;1893297;76;21554;-89
2023/08/18 02:12:56;;;;;;;3.02;2.12;;;23.80;99.90;;;;;;1893378;76;21171;-89
2023/08/18 02:15:48;;;;;;;3.72;2.47;;;23.80;99.90;;;;;;1893282;76;21518;-89
2023/08/18 02:18:40;;;;;;;2.52;2.20;;;23.80;99.90;;;;;;1893451;76;21132;-89
2023/08/18 02:21:31;;;;;;;4.08;2.58;;;23.90;99.90;;;;;;1893557;75;21111;-89
2023/08/18 02:24:23;;;;;;;6.53;2.30;;;23.90;99.90;;;;;;1892558;76;21222;-88
2023/08/18 02:27:14;;;;;;;4.45;2.10;;;24.00;99.90;;;;;;1892866;76;21546;-89
2023/08/18 02:30:09;;;;;;;5.10;2.40;;;24.00;99.90;;;;;;1893518;76;21188;-89
2023/08/18 02:33:00;;;;;;;3.92;2.50;;;24.00;99.90;;;;;;1893840;76;21575;-89
2023/08/18 02:35:54;;;;;;;3.08;2.33;;;23.90;99.90;;;;;;1893293;76;21618;-89
2023/08/18 02:38:44;;;;;;;2.52;2.10;;;23.90;99.90;;;;;;1893407;76;21183;-89
2023/08/18 02:41:36;;;;;;;2.50;1.80;;;23.90;99.90;;;;;;1893397;76;21110;-89
2023/08/18 02:44:27;;;;;;;5.97;2.20;;;23.90;99.90;;;;;;1893323;76;21098;-90
2023/08/18 02:47:19;;;;;;;2.85;1.90;;;23.90;99.90;;;;;;1893192;76;21140;-88
2023/08/18 02:50:11;;;;;;;4.22;2.00;;;23.90;99.90;;;;;;1893188;76;21126;-88
2023/08/18 02:53:03;;;;;;;2.72;1.90;;;23.80;99.90;;;;;;1893035;76;21142;-89
2023/08/18 02:55:58;;;;;;;2.37;2.00;;;23.80;99.90;;;;;;1893583;76;21082;-89
2023/08/18 02:58:49;;;;;;;3.50;2.22;;;23.80;99.90;;;;;;1893603;76;21098;-89
2023/08/18 03:01:40;;;;;;;3.17;2.20;;;23.70;99.90;;;;;;1893366;76;21153;-89
2023/08/18 03:04:32;;;;;;;4.62;2.20;;;23.70;99.90;;;;;;1893379;76;21067;-89
2023/08/18 03:07:24;;;;;;;4.00;1.70;;;23.70;99.90;;;;;;1893367;76;21094;-89
2023/08/18 03:10:15;;;;;;;3.33;1.85;;;23.60;99.90;;;;;;1893255;76;21109;-89
2023/08/18 03:13:07;;;;;;;3.70;2.35;;;23.70;99.90;;;;;;1893309;76;21594;-89
2023/08/18 03:16:02;;;;;;;4.00;2.30;;;23.60;99.90;;;;;;1893304;76;21043;-89
2023/08/18 03:18:54;;;;;;;2.98;2.10;;;23.50;99.90;;;;;;1893813;76;21066;-88
2023/08/18 03:21:46;;;;;;;2.65;1.90;;;23.50;99.90;;;;;;1878656;75;21159;-89
2023/08/18 03:24:38;;;;;;;3.70;2.35;;;23.40;99.90;;;;;;1872025;77;21055;-89
2023/08/18 03:27:30;;;;;;;2.45;2.25;;;23.40;99.90;;;;;;1883927;76;21146;-89
2023/08/18 03:30:22;;;;;;;2.92;2.17;;;23.40;99.90;;;;;;1871792;77;21164;-89
2023/08/18 03:33:13;;;;;;;3.33;2.17;;;23.40;99.90;;;;;;1884885;76;21094;-89
2023/08/18 03:36:06;;;;;;;2.87;2.22;;;23.40;99.90;;;;;;1872101;77;21569;-89
2023/08/18 03:38:59;;;;;;;4.90;2.42;;;23.40;99.90;;;;;;1871583;77;21056;-89
2023/08/18 03:41:52;;;;;;;4.85;2.10;;;23.40;99.90;;;;;;1883631;76;21176;-89
2023/08/18 03:44:45;;;;;;;3.42;2.40;;;23.40;99.90;;;;;;1871596;77;21123;-89
2023/08/18 03:47:36;;;;;;;3.02;2.27;;;23.30;99.90;;;;;;1883715;76;21192;-88
2023/08/18 03:50:27;;;;;;;3.27;2.70;;;23.30;99.90;;;;;;1884357;76;21063;-88
2023/08/18 03:53:22;;;;;;;2.92;2.20;;;23.20;99.90;;;;;;1883895;76;21113;-89
2023/08/18 03:56:12;;;;;;;5.58;2.47;;;23.10;99.90;;;;;;1883784;76;21138;-88
2023/08/18 03:59:04;;;;;;;4.08;2.25;;;23.10;99.90;;;;;;1871948;77;21121;-88
2023/08/18 04:01:55;;;;;;;3.45;2.10;;;23.10;99.90;;;;;;1883942;76;21109;-88
2023/08/18 04:04:48;;;;;;;3.83;2.40;;;23.10;99.90;;;;;;1871990;77;21201;-89
2023/08/18 04:07:39;;;;;;;3.60;2.40;;;23.10;99.90;;;;;;1883963;76;21185;-89
2023/08/18 04:10:30;;;;;;;4.10;2.47;;;23.10;99.90;;;;;;1871929;77;21168;-89
2023/08/18 04:13:25;;;;;;;3.20;2.45;;;23.00;99.90;;;;;;1915519;73;21156;-89
2023/08/18 04:19:00;;;;;;;5.87;2.30;;;22.90;99.90;;;;;;1957742;72;22196;-89
2023/08/18 04:21:53;;;;;;;3.98;2.50;;;22.90;99.90;;;;;;1917122;75;21083;-89
2023/08/18 04:24:44;;;;;;;5.97;3.08;;;22.90;99.90;;;;;;1917307;75;21114;-89
2023/08/18 04:27:36;;;;;;;4.67;2.70;;;22.90;99.90;;;;;;1905813;75;21126;-89
2023/08/18 04:30:27;;;;;;;4.95;2.90;;;22.90;99.90;;;;;;1882380;76;21348;-87
2023/08/18 04:33:19;;;;;;;4.75;2.40;;;22.90;99.90;;;;;;1847441;77;21605;-88
2023/08/18 04:36:11;;;;;;;2.92;2.10;;;23.00;99.90;;;;;;1884071;76;21098;-89
2023/08/18 04:39:03;;;;;;;4.75;2.25;;;22.90;99.90;;;;;;1848072;77;21058;-88
2023/08/18 04:41:55;;;;;;;6.62;2.98;;;22.90;99.90;;;;;;1883917;76;21177;-89
2023/08/18 04:44:49;;;;;;;4.17;2.10;;;22.90;99.90;;;;;;1883598;76;21054;-88
2023/08/18 04:47:40;;;;;;;6.00;2.45;;;22.80;99.90;;;;;;1883832;76;21184;-88
2023/08/18 04:50:31;;;;;;;7.70;3.10;;;22.90;99.90;;;;;;1883927;76;21106;-88
2023/08/18 04:53:23;;;;;;;5.28;3.40;;;22.90;99.90;;;;;;1884109;76;21949;-89
2023/08/18 04:56:15;;;;;;;7.47;3.33;;;22.90;99.90;;;;;;1884401;76;21066;-88
2023/08/18 04:59:06;;;;;;;4.05;3.12;;;22.90;99.90;;;;;;1848815;77;21179;-88
2023/08/18 05:01:57;;;;;;;3.22;2.45;;;22.90;99.90;;;;;;1884129;76;21561;-88
2023/08/18 05:04:49;;;;;;;6.22;2.72;;;22.80;99.90;;;;;;1884411;76;21522;-88
2023/08/18 05:07:40;;;;;;;3.72;2.33;;;22.70;99.90;;;;;;1916142;75;21102;-88
2023/08/18 05:10:31;;;;;;;3.05;2.30;;;22.70;99.90;;;;;;1917763;75;21127;-88
2023/08/18 05:13:22;;;;;;;4.47;2.10;;;22.60;99.90;;;;;;1917178;75;21164;-89
2023/08/18 05:16:14;;;;;;;4.08;2.27;;;22.50;99.90;;;;;;1917218;75;21059;-88
2023/08/18 05:19:06;;;;;;;3.02;2.20;;;22.60;99.90;;;;;;1909039;74;21110;-88
2023/08/18 05:22:03;;;;;;;4.85;2.50;;;22.50;99.90;;;;;;1904845;75;21048;-88
2023/08/18 05:24:56;;;;;;;4.12;2.17;;;22.40;99.90;;;;;;1904779;75;21199;-88
2023/08/18 05:30:27;;;;;;;6.92;2.65;;;22.50;99.90;;;;;;1975961;72;22601;-88
2023/08/18 05:33:18;;;;;;;4.47;2.50;;;22.50;99.90;;;;;;1950756;73;21110;-88
2023/08/18 05:36:09;;;;;;;5.10;2.92;;;22.60;99.90;;;;;;1951162;73;21241;-88
2023/08/18 05:39:01;;;;;;;11.78;2.83;;;22.60;99.90;;;;;;1951022;73;21075;-88
2023/08/18 05:41:52;;;;;;;4.65;2.60;;;22.70;99.90;;;;;;1951141;73;21095;-88
2023/08/18 05:44:44;;;;;;;7.72;2.50;;;22.80;99.90;;;;;;1951189;73;21047;-88
2023/08/18 05:47:36;;;;;;;3.40;3.10;;;22.80;99.90;;;;;;1951127;73;21108;-88
2023/08/18 05:50:29;;;;;;;4.28;2.22;;;22.90;99.90;;;;;;1951395;73;21114;-88
2023/08/18 05:53:21;;;;;;;5.75;3.15;;;22.90;99.90;;;;;;1951129;73;21167;-88
2023/08/18 05:56:14;;;;;;;6.45;2.20;;;22.90;99.90;;;;;;1951045;73;21082;-88
2023/08/18 05:59:05;;;;;;;2.83;2.30;;;22.90;99.90;;;;;;1951117;73;21129;-88
2023/08/18 06:01:57;;;;;;;6.08;2.60;;;22.90;99.90;;;;;;1950603;73;21110;-88
2023/08/18 06:04:49;;;;;;;7.30;2.60;;;23.00;99.90;;;;;;1950720;73;21102;-88
2023/08/18 06:07:40;;;;;;;5.17;2.52;;;23.10;99.90;;;;;;1917914;73;21086;-89
2023/08/18 06:10:31;;;;;;;2.92;2.67;;;23.10;99.90;;;;;;1917098;75;21090;-89
2023/08/18 06:13:23;;;;;;;8.18;2.52;;;23.00;99.90;;;;;;1917344;75;21139;-89
2023/08/18 06:16:14;;;;;;;5.97;2.65;;;23.10;99.90;;;;;;1917320;75;21051;-90
2023/08/18 06:19:05;;;;;;;2.87;2.52;;;23.10;99.90;;;;;;1917284;75;21578;-89
2023/08/18 06:21:57;;;;;;;3.58;2.60;;;23.10;99.90;;;;;;1917184;75;21110;-89
2023/08/18 06:24:48;;;;;;;7.60;2.85;;;23.20;99.90;;;;;;1917145;75;21400;-89
2023/08/18 06:27:40;;;;;;;6.08;2.60;;;23.20;99.90;;;;;;1917080;75;21128;-88
2023/08/18 06:30:34;;;;;;;5.42;3.10;;;23.30;99.90;;;;;;1908682;74;21162;-89
2023/08/18 06:33:25;;;;;;;6.12;2.62;;;23.30;99.90;;;;;;1904162;75;21102;-88
2023/08/18 06:36:16;;;;;;;4.20;2.60;;;23.40;99.90;;;;;;1904296;75;21703;-89
2023/08/18 06:39:08;;;;;;;8.25;2.60;;;23.50;99.90;;;;;;1904549;75;21170;-89
2023/08/18 06:42:00;;;;;;;3.37;2.30;;;23.50;99.90;;;;;;1916070;75;21108;-90
2023/08/18 06:44:53;;;;;;;6.15;2.40;;;23.50;99.90;;;;;;1916223;75;21124;-88
2023/08/18 06:47:45;;;;;;;7.87;2.70;;;23.50;99.90;;;;;;1916011;75;21064;-90
2023/08/18 06:50:36;;;;;;;5.72;3.27;;;23.50;99.90;;;;;;1916119;75;21220;-90
2023/08/18 06:53:28;;;;;;;3.35;2.40;;;23.60;99.90;;;;;;1916347;75;21169;-89
2023/08/18 06:56:20;;;;;;;5.60;2.55;;;23.60;99.90;;;;;;1904105;75;21115;-88
2023/08/18 06:59:12;;;;;;;6.50;2.90;;;23.70;99.90;;;;;;1916407;75;21640;-88
2023/08/18 07:02:04;;;;;;;6.03;2.58;;;23.70;99.90;;;;;;1916150;75;21169;-89
2023/08/18 07:04:56;;;;;;;4.25;2.77;;;23.90;99.90;;;;;;1916329;75;21135;-89
2023/08/18 07:07:47;;;;;;;4.92;2.77;;;23.90;99.90;;;;;;1916451;75;21212;-89
2023/08/18 07:10:38;;;;;;;7.72;3.08;;;24.00;99.90;;;;;;1916202;75;21206;-88
2023/08/18 07:13:30;;;;;;;5.42;2.52;;;24.10;99.90;;;;;;1916226;75;21092;-90
2023/08/18 07:16:21;;;;;;;7.80;2.92;;;24.10;99.90;;;;;;1916243;75;21176;-88
2023/08/18 07:19:13;;;;;;;3.98;2.80;;;24.20;99.90;;;;;;1916381;75;21115;-89
2023/08/18 07:22:05;;;;;;;3.55;2.60;;;24.30;99.90;;;;;;1916449;75;21520;-89
2023/08/18 07:24:58;;;;;;;5.20;2.50;;;24.30;99.90;;;;;;1903789;75;21256;-90
2023/08/18 07:27:50;;;;;;;5.08;2.90;;;24.50;99.90;;;;;;1904249;75;21289;-88
2023/08/18 07:30:45;;;;;;;6.22;2.70;;;24.60;99.90;;;;;;1912384;74;21175;-89
2023/08/18 07:33:37;;;;;;;5.45;2.65;;;24.70;99.90;;;;;;1925854;74;21123;-89
2023/08/18 07:36:29;;;;;;;3.58;2.50;;;24.80;99.90;;;;;;1925679;74;21099;-89
2023/08/18 07:39:20;;;;;;;6.12;2.80;;;24.80;99.90;;;;;;1925868;74;21188;-89
2023/08/18 07:42:12;;;;;;;9.75;3.27;;;24.90;99.90;;;;;;1925809;74;21173;-89
2023/08/18 07:45:04;;;;;;;8.23;2.98;;;25.00;99.90;;;;;;1925653;74;21181;-88
2023/08/18 07:47:57;;;;;;;5.70;2.70;;;25.00;99.90;;;;;;1926181;74;21441;-88
2023/08/18 07:50:48;;;;;;;4.05;2.67;;;25.10;99.90;;;;;;1925768;74;21170;-88
2023/08/18 07:53:40;;;;;;;3.02;2.58;;;25.10;99.90;;;;;;1925553;74;21149;-88
2023/08/18 07:56:31;;;;;;;6.28;2.52;;;25.10;99.90;;;;;;1925641;74;21107;-88
2023/08/18 07:59:22;;;;;;;5.20;2.65;;;25.20;99.90;;;;;;1926005;74;21129;-89
2023/08/18 08:02:14;;;;;;;2.90;2.47;;;25.30;99.90;;;;;;1926056;74;21110;-88
2023/08/18 08:05:08;;;;;;;8.63;3.30;;;25.40;99.90;;;;;;1925909;74;21646;-89
2023/08/18 08:07:59;;;;;;;5.28;3.30;;;25.50;99.90;;;;;;1925934;74;21622;-90
2023/08/18 08:10:51;;;;;;;5.33;2.80;;;25.50;99.90;;;;;;1925867;74;21180;-89
2023/08/18 08:13:44;;;;;;;6.70;3.10;;;25.60;99.90;;;;;;1926135;74;21099;-88
2023/08/18 08:16:35;;;;;;;4.83;2.80;;;25.70;99.90;;;;;;1926024;74;21581;-88
2023/08/18 08:19:27;;;;;;;3.92;2.40;;;25.80;99.90;;;;;;1925731;74;21173;-88
2023/08/18 08:22:18;;;;;;;5.47;2.60;;;25.80;99.90;;;;;;1926053;74;21103;-88
2023/08/18 08:25:11;;;;;;;5.55;2.65;;;25.90;99.90;;;;;;1925885;74;21148;-88
2023/08/18 08:28:02;;;;;;;3.40;2.42;;;26.00;99.90;;;;;;1925951;74;21177;-88
2023/08/18 08:30:54;;;;;;;6.85;2.40;;;26.00;99.90;;;;;;1924764;74;21111;-88
2023/08/18 08:33:46;;;;;;;5.20;2.77;;;26.10;99.90;;;;;;1904070;75;21642;-89
2023/08/18 08:36:37;;;;;;;7.65;2.80;;;26.20;99.90;;;;;;1904168;75;21189;-89
2023/08/18 08:39:29;;;;;;;5.92;2.80;;;26.40;99.90;;;;;;1904173;75;21126;-89
2023/08/18 08:42:20;;;;;;;6.17;2.52;;;26.50;99.90;;;;;;1904285;75;21249;-89
2023/08/18 08:45:12;;;;;;;3.92;2.33;;;26.60;99.90;;;;;;1916233;75;21169;-89
2023/08/18 08:48:07;;;;;;;5.60;2.33;;;26.70;99.90;;;;;;1916294;75;21145;-89
2023/08/18 08:51:01;;;;;;;4.95;2.70;;;26.80;99.90;;;;;;1904061;75;21144;-89
2023/08/18 08:53:57;;;;;;;5.45;3.10;;;26.90;99.90;;;;;;1916381;75;21576;-89
2023/08/18 08:56:51;;;;;;;4.95;2.58;;;27.00;99.90;;;;;;1916642;75;21107;-89
2023/08/18 08:59:43;;;;;;;5.72;2.70;;;27.10;99.90;;;;;;1915912;75;21111;-89
2023/08/18 09:02:37;;;;;;;4.67;2.60;;;27.20;99.90;;;;;;1904428;75;21065;-89
2023/08/18 09:05:31;;;;;;;6.55;2.90;;;27.40;99.90;;;;;;1905116;75;21096;-89
2023/08/18 09:08:22;;;;;;;4.17;2.62;;;27.40;99.90;;;;;;1904290;75;21140;-88
2023/08/18 09:11:14;;;;;;;8.90;3.60;;;27.50;99.90;;;;;;1904436;75;21119;-88
2023/08/18 09:14:06;;;;;;;4.33;2.67;;;27.60;99.90;;;;;;1903337;75;21199;-89
2023/08/18 09:16:57;;;;;;;5.58;2.90;;;27.70;99.90;;;;;;1903376;75;21178;-89
2023/08/18 09:19:50;;;;;;;4.12;2.52;;;27.80;99.90;;;;;;1903717;75;21057;-88
2023/08/18 09:22:42;;;;;;;4.53;2.47;;;27.80;99.90;;;;;;1904075;75;21099;-88
2023/08/18 09:25:36;;;;;;;4.80;2.70;;;27.90;99.90;;;;;;1904803;75;21139;-88
2023/08/18 09:28:29;;;;;;;6.30;2.60;;;28.00;99.60;;;;;;1904507;75;21550;-89
2023/08/18 09:31:21;;;;;;;3.50;2.60;;;28.10;99.30;;;;;;1904240;75;21072;-89
2023/08/18 09:34:20;;;;;;;3.95;2.45;;;28.20;99.00;;;;;;1904259;75;21194;-88
2023/08/18 09:37:12;;;;;;;6.17;3.00;;;28.30;98.80;;;;;;1903961;75;21202;-89
2023/08/18 09:40:05;;;;;;;5.00;2.85;;;28.40;99.10;;;;;;1916376;75;21181;-89
2023/08/18 09:42:56;;;;;;;6.12;2.83;;;28.50;99.50;;;;;;1916531;75;21123;-89
2023/08/18 09:45:49;;;;;;;5.67;3.60;;;28.60;99.90;;;;;;1915720;75;21120;-89
2023/08/18 09:48:43;;;;;;;6.37;3.12;;;28.70;99.90;;;;;;1915737;75;21076;-89
2023/08/18 09:51:36;;;;;;;5.95;2.80;;;28.70;99.90;;;;;;1916038;75;21151;-89
2023/08/18 09:54:29;;;;;;;6.83;2.50;;;28.80;98.90;;;;;;1915971;75;21217;-89
2023/08/18 09:57:25;;;;;;;5.20;2.85;;;28.90;98.80;;;;;;1916240;75;21556;-88
2023/08/18 10:00:18;;;;;;;5.85;2.77;;;29.10;98.70;;;;;;1916684;75;21111;-89
2023/08/18 10:03:16;;;;;;;5.40;2.93;;;29.20;98.00;;;;;;1916985;75;21214;-89
2023/08/18 10:06:08;;;;;;;6.78;2.85;;;29.20;97.10;;;;;;1903909;75;21628;-89
2023/08/18 10:09:02;;;;;;;5.05;2.60;;;29.30;96.80;;;;;;1903677;75;21564;-89
2023/08/18 10:11:54;;;;;;;7.00;2.83;;;29.40;97.20;;;;;;1903577;75;21116;-89
2023/08/18 10:14:49;;;;;;;7.53;2.80;;;29.40;97.20;;;;;;1903409;75;21190;-89
2023/08/18 10:17:41;;;;;;;7.67;3.12;;;29.30;97.40;;;;;;1904015;75;21060;-89
2023/08/18 10:20:32;;;;;;;7.33;2.95;;;29.50;97.50;;;;;;1903941;75;21164;-88
2023/08/18 10:23:28;;;;;;;5.60;2.90;;;29.60;97.00;;;;;;1903978;75;21076;-89
2023/08/18 10:26:19;;;;;;;5.65;3.08;;;29.70;96.80;;;;;;1916445;75;21056;-89
2023/08/18 10:29:17;;;;;;;5.83;2.85;;;29.90;96.60;;;;;;1916667;75;21084;-88
2023/08/18 10:32:12;;;;;;;6.10;2.85;;;30.00;96.40;;;;;;1904047;75;21076;-89
2023/08/18 10:35:23;;;;;;;7.17;2.87;;;30.10;96.30;;;;;;1904094;75;21194;-89
2023/08/18 10:38:14;;;;;;;5.78;2.45;;;30.40;96.20;;;;;;1903847;75;21134;-89
2023/08/18 10:41:08;;;;;;;4.03;2.60;;;30.40;95.40;;;;;;1903867;75;21405;-89
2023/08/18 10:44:00;;;;;;;4.97;2.70;;;30.40;95.20;;;;;;1916679;75;21519;-89
2023/08/18 10:46:51;;;;;;;7.00;2.70;;;30.50;94.60;;;;;;1916156;75;21096;-89
2023/08/18 10:49:43;;;;;;;7.25;2.80;;;30.60;94.00;;;;;;1916542;75;21104;-89
2023/08/18 10:52:34;;;;;;;5.58;2.83;;;30.60;93.80;;;;;;1916322;75;21141;-90
2023/08/18 10:55:26;;;;;;;5.50;2.83;;;30.60;93.30;;;;;;1904473;75;21658;-88
2023/08/18 10:58:18;;;;;;;4.60;2.40;;;30.70;93.00;;;;;;1904532;75;21169;-89
2023/08/18 11:01:11;;;;;;;5.85;2.65;;;30.70;92.80;;;;;;1903888;75;21613;-89
2023/08/18 11:04:04;;;;;;;6.58;2.85;;;30.90;92.50;;;;;;1904041;75;21173;-88
2023/08/18 11:06:55;;;;;;;5.53;2.87;;;31.00;92.60;;;;;;1904068;75;21065;-89
2023/08/18 11:09:47;;;;;;;6.37;2.83;;;31.00;90.90;;;;;;1904062;75;21099;-89
2023/08/18 11:12:40;;;;;;;4.60;2.58;;;30.90;90.40;;;;;;1903971;75;21092;-89
2023/08/18 11:15:31;;;;;;;4.30;2.47;;;31.00;88.80;;;;;;1916443;75;21154;-89
2023/08/18 11:18:24;;;;;;;2.60;2.27;;;31.10;87.20;;;;;;1916605;75;21148;-89
2023/08/18 11:21:16;;;;;;;4.10;2.40;;;31.20;86.80;;;;;;1916499;75;21190;-89
2023/08/18 11:24:09;;;;;;;4.72;2.67;;;31.40;85.70;;;;;;1904426;75;21201;-89
2023/08/18 11:27:01;;;;;;;4.90;2.67;;;31.50;83.20;;;;;;1903821;75;21505;-89
2023/08/18 11:29:53;;;;;;;5.83;2.45;;;31.60;83.20;;;;;;1903859;75;21516;-89
2023/08/18 11:32:45;;;;;;;4.33;2.70;;;31.80;81.60;;;;;;1916437;75;21203;-89
2023/08/18 11:35:38;;;;;;;4.17;2.52;;;31.90;81.60;;;;;;1927551;74;21111;-89
2023/08/18 11:38:30;;;;;;;3.37;2.20;;;31.90;81.00;;;;;;1932431;74;21145;-89
2023/08/18 11:41:22;;;;;;;5.47;2.60;;;32.00;81.00;;;;;;1932524;74;21223;-89
2023/08/18 11:44:13;;;;;;;4.03;2.40;;;32.20;80.50;;;;;;1932498;74;21190;-89
2023/08/18 11:47:06;;;;;;;3.87;2.47;;;32.40;79.20;;;;;;1932376;74;21064;-89
2023/08/18 11:49:58;;;;;;;7.45;2.35;;;32.40;77.80;;;;;;1932575;74;21907;-89
2023/08/18 11:52:53;;;;;;;3.90;2.22;;;32.50;77.40;;;;;;1932523;74;21150;-89
2023/08/18 11:55:45;;;;;;;3.42;2.52;;;32.60;77.40;;;;;;1932403;74;21571;-89
2023/08/18 11:58:37;;;;;;;6.85;2.75;;;32.70;76.90;;;;;;1932496;74;21102;-89
2023/08/18 12:01:34;;;;;;;4.05;2.55;;;32.80;77.30;;;;;;1932405;74;21184;-89
2023/08/18 12:04:26;;;;;;;4.67;2.17;;;33.00;76.70;;;;;;1932480;74;21141;-89
2023/08/18 12:07:18;;;;;;;4.50;2.70;;;33.10;75.70;;;;;;1932394;74;21148;-89
2023/08/18 12:10:11;;;;;;;2.72;2.20;;;33.10;75.30;;;;;;1932394;74;21151;-89
2023/08/18 12:13:03;;;;;;;3.05;2.30;;;33.20;74.20;;;;;;1932249;74;21193;-89
2023/08/18 12:15:55;;;;;;;3.65;2.00;;;33.30;74.40;;;;;;1932239;74;21132;-89
2023/08/18 12:18:46;;;;;;;3.45;1.70;;;33.20;71.20;;;;;;1932604;74;21107;-89
2023/08/18 12:21:38;;;;;;;2.58;1.55;;;33.10;69.80;;;;;;1932379;74;21127;-89
2023/08/18 12:24:29;;;;;;;5.15;1.90;;;33.00;70.40;;;;;;1932641;74;21565;-88
2023/08/18 12:27:23;;;;;;;3.65;1.60;;;33.00;70.10;;;;;;1932467;74;21059;-87
2023/08/18 12:30:15;;;;;;;1.95;1.52;;;33.00;69.10;;;;;;1932512;74;21153;-89
2023/08/18 12:33:07;;;;;;;6.05;1.77;;;33.20;68.20;;;;;;1932361;74;21176;-88
2023/08/18 12:35:58;;;;;;;3.05;1.60;;;33.20;67.60;;;;;;1947735;73;21118;-88
2023/08/18 12:38:50;;;;;;;1.50;1.40;;;33.30;66.40;;;;;;1944905;74;21059;-89
2023/08/18 12:41:42;;;;;;;1.57;1.45;;;33.40;64.80;;;;;;1944799;74;21560;-89
2023/08/18 12:44:33;;;;;;;2.02;1.52;;;33.50;63.60;;;;;;1944766;74;22415;-87
2023/08/18 12:47:26;;;;;;;1.32;1.22;;;33.60;63.80;;;;;;1944669;74;21043;-89
2023/08/18 12:50:18;;;;;;;3.20;1.40;;;33.70;63.70;;;;;;1945174;74;21566;-89
2023/08/18 12:53:09;;;;;;;1.52;1.32;;;33.90;62.20;;;;;;1945081;74;21123;-89
2023/08/18 12:56:03;;;;;;;1.55;1.40;;;33.90;61.70;;;;;;1944779;74;21528;-88
2023/08/18 12:58:53;;;;;;;2.52;1.20;;;34.00;61.30;;;;;;1944676;74;21570;-89
2023/08/18 13:01:45;;;;;;;4.28;1.60;;;34.00;58.90;;;;;;1944513;74;21148;-89
2023/08/18 13:04:36;;;;;;;2.98;1.40;;;34.10;58.90;;;;;;1944975;74;21099;-89
2023/08/18 13:07:28;;;;;;;2.55;1.50;;;34.20;58.30;;;;;;1944929;74;21102;-89
2023/08/18 13:10:19;;;;;;;2.85;1.60;;;34.30;58.00;;;;;;1944694;74;21177;-88
2023/08/18 13:13:11;;;;;;;3.77;1.30;;;34.40;57.80;;;;;;1945105;74;21055;-89
2023/08/18 13:16:02;;;;;;;1.70;1.45;;;34.50;57.50;;;;;;1944840;74;21172;-89
2023/08/18 13:18:53;;;;;;;1.50;1.40;;;34.60;56.40;;;;;;1945030;74;21087;-90
2023/08/18 13:21:45;;;;;;;2.72;1.50;;;34.60;56.40;;;;;;1945312;74;21176;-91
2023/08/18 13:24:37;;;;;;;1.45;1.35;;;34.70;56.90;;;;;;1944101;74;21188;-87
2023/08/18 13:27:28;;;;;;;1.40;1.30;;;34.70;55.90;;;;;;1944734;74;21129;-87
2023/08/18 13:30:23;;;;;;;3.17;1.57;;;34.70;55.50;;;;;;1945193;74;21091;-88
2023/08/18 13:33:14;;;;;;;3.37;1.50;;;34.80;56.00;;;;;;1944982;74;21110;-90
2023/08/18 13:36:07;;;;;;;2.98;1.35;;;34.90;56.50;;;;;;1945732;73;21136;-88
2023/08/18 13:38:58;;;;;;;5.33;1.50;;;35.00;55.80;;;;;;1950150;73;21550;-89
2023/08/18 13:41:49;;;;;;;1.72;1.30;;;35.10;54.40;;;;;;1950074;73;21087;-89
2023/08/18 13:44:42;;;;;;;2.90;1.40;;;35.10;54.80;;;;;;1949793;73;21114;-89
2023/08/18 13:47:33;;;;;;;2.30;1.37;;;35.20;54.80;;;;;;1949925;73;21147;-89
2023/08/18 13:50:24;;;;;;;1.37;1.27;;;35.20;54.30;;;;;;1949959;73;21152;-88
2023/08/18 13:53:16;;;;;;;3.00;1.42;;;35.10;53.70;;;;;;1950199;73;21180;-88
2023/08/18 13:56:08;;;;;;;2.20;1.32;;;35.20;54.20;;;;;;1950198;73;21164;-88
2023/08/18 13:59:00;;;;;;;3.37;1.40;;;35.40;53.90;;;;;;1950480;73;21128;-87
2023/08/18 14:01:51;;;;;;;1.55;1.45;;;35.40;53.60;;;;;;1950228;73;21059;-89
2023/08/18 14:04:43;;;;;;;1.55;1.27;;;35.50;53.00;;;;;;1950022;73;21102;-87
2023/08/18 14:07:34;;;;;;;2.58;1.52;;;35.80;52.70;;;;;;1950284;73;21208;-87
2023/08/18 14:10:27;;;;;;;2.47;1.35;;;36.10;51.30;;;;;;1950225;73;21058;-88
2023/08/18 14:13:18;;;;;;;1.60;1.35;;;36.20;51.80;;;;;;1950173;73;21086;-88
2023/08/18 14:16:10;;;;;;;2.08;1.40;;;36.20;51.80;;;;;;1950007;73;21113;-88
2023/08/18 14:19:01;;;;;;;4.30;1.57;;;36.40;52.40;;;;;;1950284;73;21113;-85
2023/08/18 14:21:53;;;;;;;1.45;1.35;;;36.70;51.70;;;;;;1950068;73;21594;-85
2023/08/18 14:24:44;;;;;;;2.45;1.40;;;36.70;50.80;;;;;;1950241;73;21063;-85
2023/08/18 14:27:37;;;;;;;1.40;1.30;;;36.70;51.00;;;;;;1950108;73;21138;-86
2023/08/18 14:30:28;;;;;;;1.65;1.40;;;36.90;51.10;;;;;;1949968;73;21131;-85
2023/08/18 14:33:20;;;;;;;1.95;1.60;;;36.80;50.60;;;;;;1949841;73;21168;-86
2023/08/18 14:36:14;;;;;;;2.77;1.60;;;36.50;51.30;;;;;;1949986;73;21106;-86
2023/08/18 14:39:06;;;;;;;2.02;1.50;;;36.20;52.60;;;;;;1950102;73;21149;-85
2023/08/18 14:41:57;;;;;;;2.30;1.45;;;36.20;52.70;;;;;;1949873;73;21349;-85
2023/08/18 14:44:51;;;;;;;3.37;1.65;;;35.90;52.80;;;;;;1950178;73;21078;-85
2023/08/18 14:47:42;;;;;;;3.15;1.80;;;35.80;54.00;;;;;;1950224;73;21098;-86
2023/08/18 14:50:34;;;;;;;3.72;2.00;;;35.70;54.40;;;;;;1950074;73;21143;-85
2023/08/18 14:53:26;;;;;;;2.00;1.80;;;35.60;54.90;;;;;;1950156;73;21082;-87
2023/08/18 14:56:17;;;;;;;3.80;2.00;;;35.40;55.20;;;;;;1950024;73;22265;-84
2023/08/18 14:59:09;;;;;;;2.22;1.55;;;35.40;55.10;;;;;;1950087;73;21098;-85
2023/08/18 15:02:00;;;;;;;2.17;1.98;;;35.60;55.00;;;;;;1950112;73;21043;-84